Hauptseite
METAR-TAF:

METAR-TAF

Flughäfen :

Flughafen Teheran-Mehrabad

Teheran, Iran

Breite: 35-41N, Länge: 051-21E, Höhe: 1204 m

Beobachtung

Neuester Wetterbericht von vor 38 Minuten, um 02:30 UTC
Wind 6 kt aus West
Temperatur 17°C
Luftfeuchtigkeit 52%
Luftdruck 1015 hPa
Sichtweite 10 km oder mehr
keine Wolken unter 1500 m und keine Kumulonimbus oder Gewitterwolken

METAR: OIII 070230Z 28006KT CAVOK 17/07 Q1015 A2998

Zeit: 07:38 (03:08 UTC)

Prognose

Neuester Wetterbericht von vor 4 Stunden und 8 Minuten, um 23:00 UTC
Gültige Prognose vom 07 um 00 UTC bis 08 um 06 UTC
Wind 12 kt aus West/Nordwest
Sichtweite: 7000 m
Zeitweise
vom 07 um 06 UTC bis 07 um 15 UTC
Wind 20 kt aus West

TAF: OIII 062300Z 0700/0806 30012KT 7000 NSC TEMPO 0706/0715 26020KT

Wetterbeobachtungen und Prognosen von mehr als 4000 Flughäfen (METAR und TAF Bericht).

Die verfügbaren Stationen werden durch gelbe und rote Markierungen auf der Karte dargestellt.

Führen Sie die Maus auf sie, um den Namen der Station zu sehen.

Darauf klicken, um die Beobachtung von Wetterbeobachtungen und Prognosen zu sehen.

Um die Karte zu ändern : klicken Sie auf den grünen Tasten mit einem schwarzen Kreuz Zum Vergrößern, auf den grünen Button mit einem Gedankenstrich zu verkleinern, oder auf die grünen Pfeile für benachbarte Karten.


METAR-TAF: